Evergreen, Colorado
Current Conditions -  °F | °C
As of 3:48 PM on Friday 28 Nov 2014 (Local Time) from KBJC Reporting Station
Broken Clouds Broken Clouds  
Wind Chill: 68°   Ceiling: 20000
Heat Index: 68°   Visibility: 50mi
Dew Point: 12°   Wind: 0mph
Humidity: 12%   Direction: NA
Pressure: 29.84"   Gusts: NA
Location:  39.63°N, 105.31°W
Report Text: KBJC 282248Z 00000KT 50SM BKN200 20/M11 A2984
Loading
Personal Weather Stations






























Interactive Weather Map New forecast layout! Learn more

10-Day Weather Forecast

Advertisements
Track Severe Weather on mobile